TimeEST,TemperatureF,Dew PointF,Humidity,Sea Level PressureIn,VisibilityMPH,Wind Direction,Wind SpeedMPH,Gust SpeedMPH,PrecipitationIn,Events,Conditions,WindDirDegrees,DateUTC
12:03 AM,50.0,46.4,87,30.25,4.0,ENE,3.5,-,N/A,,Overcast,70,2013-11-17 05:03:00
12:21 AM,50.0,46.4,87,30.25,4.0,East,3.5,-,N/A,,Overcast,80,2013-11-17 05:21:00
12:39 AM,50.0,46.4,87,30.25,4.0,East,3.5,-,N/A,,Overcast,100,2013-11-17 05:39:00
12:51 AM,50.0,46.9,89,30.25,4.0,Calm,Calm,-,N/A,,Overcast,0,2013-11-17 05:51:00
1:36 AM,50.0,46.4,87,30.23,2.5,SE,3.5,-,N/A,,Overcast,140,2013-11-17 06:36:00
1:46 AM,50.0,46.4,87,30.24,3.0,Calm,Calm,-,N/A,,Overcast,0,2013-11-17 06:46:00
1:51 AM,50.0,46.9,89,30.25,3.0,South,3.5,-,N/A,,Overcast,180,2013-11-17 06:51:00
2:51 AM,50.0,46.9,89,30.23,3.0,Calm,Calm,-,N/A,,Overcast,0,2013-11-17 07:51:00
3:51 AM,50.0,46.9,89,30.22,3.0,Calm,Calm,-,N/A,,Overcast,0,2013-11-17 08:51:00
4:51 AM,50.0,48.0,93,30.19,4.0,East,4.6,-,N/A,,Overcast,100,2013-11-17 09:51:00
5:51 AM,50.0,46.9,89,30.19,3.0,NE,3.5,-,N/A,,Overcast,40,2013-11-17 10:51:00
6:51 AM,52.0,48.9,89,30.18,5.0,ESE,6.9,-,N/A,,Overcast,110,2013-11-17 11:51:00
7:51 AM,53.1,48.9,86,30.19,5.0,ESE,4.6,-,N/A,,Overcast,120,2013-11-17 12:51:00
8:51 AM,53.1,48.9,86,30.19,4.0,Calm,Calm,-,N/A,,Overcast,0,2013-11-17 13:51:00
9:51 AM,54.0,50.0,86,30.17,4.0,SE,4.6,-,N/A,,Overcast,130,2013-11-17 14:51:00
10:51 AM,57.0,52.0,83,30.16,6.0,SW,3.5,-,N/A,,Haze,230,2013-11-17 15:51:00
11:19 AM,60.8,51.8,72,30.13,8.0,SSE,6.9,-,N/A,,Overcast,150,2013-11-17 16:19:00
11:51 AM,61.0,52.0,72,30.11,10.0,South,11.5,16.1,N/A,,Mostly Cloudy,190,2013-11-17 16:51:00
12:12 PM,60.8,51.8,72,30.10,10.0,South,9.2,-,N/A,,Mostly Cloudy,190,2013-11-17 17:12:00
12:51 PM,61.0,53.1,75,30.09,10.0,SW,6.9,-,N/A,,Overcast,220,2013-11-17 17:51:00
1:38 PM,62.6,51.8,68,30.06,10.0,South,9.2,-,N/A,,Overcast,180,2013-11-17 18:38:00
1:51 PM,62.1,52.0,70,30.06,10.0,South,9.2,-,N/A,,Overcast,190,2013-11-17 18:51:00
2:51 PM,62.1,53.1,72,30.03,10.0,South,3.5,-,N/A,,Partly Cloudy,170,2013-11-17 19:51:00
3:51 PM,63.0,53.1,70,30.01,10.0,South,5.8,-,N/A,,Overcast,170,2013-11-17 20:51:00
4:51 PM,62.1,52.0,70,29.98,10.0,SE,3.5,-,N/A,,Scattered Clouds,140,2013-11-17 21:51:00
5:51 PM,62.1,53.1,72,29.96,10.0,South,5.8,-,N/A,,Scattered Clouds,180,2013-11-17 22:51:00
6:51 PM,61.0,53.1,75,29.92,10.0,South,9.2,-,N/A,,Clear,170,2013-11-17 23:51:00
7:51 PM,61.0,54.0,78,29.91,10.0,South,9.2,-,N/A,,Partly Cloudy,170,2013-11-18 00:51:00
8:04 PM,60.8,53.6,77,29.90,10.0,Variable,6.9,-,N/A,,Mostly Cloudy,0,2013-11-18 01:04:00
8:51 PM,61.0,55.0,81,29.88,10.0,South,8.1,-,N/A,,Overcast,180,2013-11-18 01:51:00
9:51 PM,61.0,55.0,81,29.83,10.0,South,10.4,-,N/A,,Overcast,190,2013-11-18 02:51:00
10:20 PM,60.8,55.4,82,29.79,10.0,South,13.8,20.7,N/A,,Overcast,170,2013-11-18 03:20:00
10:48 PM,62.6,55.4,77,29.79,10.0,South,9.2,-,N/A,,Overcast,180,2013-11-18 03:48:00
10:51 PM,61.0,55.9,83,29.79,10.0,South,8.1,-,N/A,,Overcast,180,2013-11-18 03:51:00
11:15 PM,62.6,55.4,77,29.77,10.0,South,11.5,-,0.00,,Overcast,180,2013-11-18 04:15:00
11:51 PM,62.1,55.9,80,29.73,10.0,South,13.8,23.0,0.00,,Overcast,180,2013-11-18 04:51:00